In Rescue
 
Open Full Screen Window  High Contrast Mode
Wind Gusting 00 knots
14
February 25, 2021 2:20 PM PST
Present Weather: Haze
Weather Information
Wind Direction
  330 °
Wind Speed
  14 kt (16 mph)
Wind Gust
  00 kt (0 mph)
Altimeter
30.23 in
Visibility
5 SM
Temperature
13° C
55° F
Dewpoint
05° C
41° F
Humidity
59%
1hr Rain Fall
00.00 in.
24hr Rain Fall
00.00 in.
Sky Condition
Clear
MVFR

METAR KHAF 252220Z AUTO 33014KT 5SM HZ CLR 13/05 A3023 RMK AO2

FAA Disclaimer: The data displayed is for advisory purposes only and is not to be used for flight planning or operations.